Albertville, Minnesota
Current Conditions -  °F | °C
As of 1:14 AM on Wednesday 22 Oct 2014 (Local Time) from KCFE Reporting Station
Clear Clear  
Wind Chill: 44°   Ceiling: Unl
Heat Index: 47°   Visibility: 10mi
Dew Point: 38°   Wind: 7mph
Humidity: 70%   Direction: 130°SE
Pressure: 30.15"   Gusts: NA
Location:  45.24°N, 93.65°W
Report Text: KCFE 220614Z AUTO 13006KT 10SM CLR 08/03 A3015 RMK AO2 T00830031
Loading
Personal Weather Stations






























Interactive Weather Map
Tropical Storm Tracking
New forecast layout! Learn more

10-Day Weather Forecast

Advertisements
Track Severe Weather on mobile